createdAt,value
2023-05-15T00:01:59.367Z,7.82
2023-05-15T00:04:26.956Z,7.90
2023-05-15T00:06:54.148Z,8.00
2023-05-15T00:09:21.196Z,7.93
2023-05-15T00:11:48.231Z,7.15
2023-05-15T00:14:15.352Z,7.03
2023-05-15T00:16:43.220Z,6.93
2023-05-15T00:19:10.587Z,8.35
2023-05-15T00:21:37.775Z,7.07
2023-05-15T00:24:04.830Z,7.53
2023-05-15T00:26:31.985Z,7.47
2023-05-15T00:28:59.296Z,7.05
2023-05-15T00:31:26.301Z,6.68
2023-05-15T00:33:53.291Z,6.32
2023-05-15T00:36:22.337Z,6.47
2023-05-15T00:38:51.102Z,7.20
2023-05-15T00:41:18.982Z,6.85
2023-05-15T00:43:47.071Z,7.35
2023-05-15T00:46:14.437Z,6.72
2023-05-15T00:48:44.731Z,6.38
2023-05-15T00:51:12.758Z,7.18
2023-05-15T00:53:40.521Z,7.97
2023-05-15T00:56:09.518Z,7.13
2023-05-15T00:58:38.293Z,6.35
2023-05-15T01:01:08.253Z,6.25
2023-05-15T01:03:37.604Z,7.10
2023-05-15T01:06:05.190Z,6.43
2023-05-15T01:08:47.136Z,6.53
2023-05-15T01:11:16.658Z,6.25
2023-05-15T01:13:44.432Z,6.88
2023-05-15T01:16:11.659Z,7.60
2023-05-15T01:18:39.246Z,6.57
2023-05-15T01:21:06.249Z,7.50
2023-05-15T01:24:21.039Z,7.50
2023-05-15T01:27:22.951Z,9.15
2023-05-15T01:30:04.847Z,9.30
2023-05-15T01:33:12.190Z,9.75
2023-05-15T01:36:20.717Z,9.25
2023-05-15T01:38:57.409Z,8.90
2023-05-15T01:41:41.459Z,9.65
2023-05-15T01:44:31.330Z,8.68
2023-05-15T01:47:13.422Z,8.75
2023-05-15T01:49:44.114Z,9.25
2023-05-15T01:52:30.042Z,9.95
2023-05-15T01:54:58.392Z,9.10
2023-05-15T01:57:28.232Z,9.43
2023-05-15T01:59:59.018Z,9.38
2023-05-15T02:02:27.861Z,9.40
2023-05-15T02:04:57.047Z,9.20
2023-05-15T02:07:25.205Z,9.95
2023-05-15T02:09:53.169Z,9.35
2023-05-15T02:12:22.241Z,9.05
2023-05-15T02:14:50.776Z,9.52
2023-05-15T02:17:21.787Z,10.48
2023-05-15T02:19:50.519Z,8.32
2023-05-15T02:22:17.721Z,8.90
2023-05-15T02:24:45.259Z,8.27
2023-05-15T02:27:23.117Z,8.80
2023-05-15T02:30:29.433Z,8.07
2023-05-15T02:33:28.344Z,8.48
2023-05-15T02:36:11.519Z,8.25
2023-05-15T02:38:50.273Z,8.02
2023-05-15T02:41:18.411Z,8.80
2023-05-15T02:43:46.803Z,8.70
2023-05-15T02:46:15.614Z,8.13
2023-05-15T02:48:44.123Z,8.45
2023-05-15T02:51:14.164Z,8.55
2023-05-15T02:53:42.388Z,8.40
2023-05-15T02:56:10.305Z,8.57
2023-05-15T02:58:39.115Z,9.15
2023-05-15T03:01:06.901Z,8.80
2023-05-15T03:03:34.036Z,8.65
2023-05-15T03:06:01.403Z,8.20
2023-05-15T03:08:29.105Z,8.40
2023-05-15T03:10:56.245Z,8.40
2023-05-15T03:13:23.238Z,8.52
2023-05-15T03:15:50.418Z,8.65
2023-05-15T03:18:18.953Z,8.43
2023-05-15T03:20:47.690Z,8.23
2023-05-15T03:23:14.737Z,8.90
2023-05-15T03:25:41.734Z,9.23
2023-05-15T03:28:08.827Z,10.65
2023-05-15T03:30:36.076Z,10.18
2023-05-15T03:33:06.567Z,9.77
2023-05-15T03:35:33.660Z,9.38
2023-05-15T03:38:00.704Z,9.95
2023-05-15T03:40:27.769Z,9.30
2023-05-15T03:42:54.976Z,8.95
2023-05-15T03:45:22.352Z,9.27
2023-05-15T03:47:49.880Z,8.93
2023-05-15T03:50:17.896Z,8.13
2023-05-15T03:52:44.819Z,8.90
2023-05-15T03:55:12.087Z,8.80
2023-05-15T03:57:41.799Z,8.88
2023-05-15T04:00:13.062Z,8.70
2023-05-15T04:02:41.305Z,9.38
2023-05-15T04:05:09.690Z,9.20
2023-05-15T04:07:37.465Z,8.90
2023-05-15T04:10:05.221Z,8.98
2023-05-15T04:12:35.109Z,10.65
2023-05-15T04:15:21.861Z,10.45
2023-05-15T04:17:52.086Z,10.40
2023-05-15T04:20:22.407Z,9.15
2023-05-15T04:22:50.245Z,9.23
2023-05-15T04:25:18.266Z,9.80
2023-05-15T04:27:45.314Z,9.15
2023-05-15T04:30:13.621Z,9.13
2023-05-15T04:32:41.258Z,9.68
2023-05-15T04:35:11.700Z,9.65
2023-05-15T04:37:40.450Z,8.15
2023-05-15T04:40:09.094Z,8.82
2023-05-15T04:42:38.561Z,9.13
2023-05-15T04:45:07.820Z,9.07
2023-05-15T04:47:35.632Z,9.82
2023-05-15T04:50:03.048Z,8.82
2023-05-15T04:52:30.155Z,8.65
2023-05-15T04:54:57.080Z,9.57
2023-05-15T04:57:25.859Z,9.25
2023-05-15T04:59:53.581Z,9.40
2023-05-15T05:02:25.631Z,9.45
2023-05-15T05:04:52.647Z,10.40
2023-05-15T05:07:19.594Z,11.18
2023-05-15T05:09:46.537Z,10.98
2023-05-15T05:12:14.139Z,10.38
2023-05-15T05:14:42.315Z,11.30
2023-05-15T05:17:10.828Z,10.75
2023-05-15T05:19:38.045Z,10.82
2023-05-15T05:22:06.030Z,12.50
2023-05-15T05:24:35.371Z,12.73
2023-05-15T05:27:02.481Z,11.55
2023-05-15T05:29:31.864Z,11.48
2023-05-15T05:32:29.986Z,11.70
2023-05-15T05:34:57.205Z,9.65
2023-05-15T05:37:24.193Z,9.85
2023-05-15T05:39:51.297Z,9.82
2023-05-15T05:42:18.295Z,10.35
2023-05-15T05:44:45.364Z,9.07
2023-05-15T05:47:12.595Z,9.70
2023-05-15T05:49:39.952Z,9.23
2023-05-15T05:52:10.129Z,8.98
2023-05-15T05:54:37.506Z,9.13
2023-05-15T05:57:05.230Z,9.68
2023-05-15T05:59:33.394Z,9.68
2023-05-15T06:02:00.484Z,8.73
2023-05-15T06:04:27.616Z,10.10
2023-05-15T06:06:54.705Z,9.23
2023-05-15T06:09:21.830Z,8.95
2023-05-15T06:11:49.128Z,8.25
2023-05-15T06:14:16.116Z,8.50
2023-05-15T06:16:43.863Z,8.07
2023-05-15T06:19:10.903Z,8.20
2023-05-15T06:21:37.988Z,7.88
2023-05-15T06:24:05.120Z,8.27
2023-05-15T06:26:32.363Z,7.50
2023-05-15T06:28:59.647Z,8.38
2023-05-15T06:31:27.589Z,7.78
2023-05-15T06:33:54.751Z,8.02
2023-05-15T06:36:22.105Z,7.97
2023-05-15T06:38:49.170Z,6.93
2023-05-15T06:41:16.422Z,8.35
2023-05-15T06:43:43.542Z,7.80
2023-05-15T06:46:10.609Z,7.82
2023-05-15T06:48:37.858Z,7.18
2023-05-15T06:51:05.050Z,7.03
2023-05-15T06:53:32.338Z,7.13
2023-05-15T06:55:59.649Z,6.47
2023-05-15T06:58:26.859Z,5.93
2023-05-15T07:00:55.542Z,6.15
2023-05-15T07:03:23.375Z,5.78
2023-05-15T07:05:51.271Z,5.90
2023-05-15T07:08:18.237Z,5.72
2023-05-15T07:10:45.703Z,5.53
2023-05-15T07:13:12.649Z,5.32
2023-05-15T07:15:40.345Z,5.13
2023-05-15T07:18:07.553Z,5.68
2023-05-15T07:20:35.390Z,5.22
2023-05-15T07:23:03.271Z,5.22
2023-05-15T07:25:30.384Z,5.00
2023-05-15T07:27:57.813Z,5.18
2023-05-15T07:30:26.207Z,4.57
2023-05-15T07:32:53.827Z,4.28
2023-05-15T07:35:20.984Z,4.80
2023-05-15T07:37:48.262Z,4.75
2023-05-15T07:40:15.651Z,4.72
2023-05-15T07:42:44.901Z,5.53
2023-05-15T07:45:12.133Z,5.65
2023-05-15T07:47:41.632Z,6.07
2023-05-15T07:50:09.367Z,5.97
2023-05-15T07:52:36.398Z,6.25
2023-05-15T07:55:04.309Z,6.00
2023-05-15T07:57:31.902Z,5.75
2023-05-15T07:59:59.360Z,5.35
2023-05-15T08:02:26.584Z,5.15
2023-05-15T08:04:53.961Z,5.45
2023-05-15T08:07:21.251Z,5.50
2023-05-15T08:09:48.210Z,6.47
2023-05-15T08:12:22.970Z,5.75
2023-05-15T08:14:53.071Z,5.38
2023-05-15T08:17:21.194Z,5.30
2023-05-15T08:19:49.244Z,5.15
2023-05-15T08:22:16.314Z,5.57
2023-05-15T08:24:43.508Z,4.65
2023-05-15T08:27:10.849Z,4.72
2023-05-15T08:29:39.750Z,4.63
2023-05-15T08:32:09.289Z,4.90
2023-05-15T08:34:36.384Z,5.07
2023-05-15T08:37:04.790Z,4.57
2023-05-15T08:39:32.379Z,4.75
2023-05-15T08:42:17.882Z,4.20
2023-05-15T08:44:45.452Z,4.88
2023-05-15T08:47:14.656Z,4.65
2023-05-15T08:50:07.668Z,4.45
2023-05-15T08:52:35.524Z,4.07
2023-05-15T08:55:04.788Z,4.38
2023-05-15T08:57:34.094Z,4.43
2023-05-15T09:00:03.202Z,4.13
2023-05-15T09:02:31.025Z,4.60
2023-05-15T09:04:58.514Z,4.05
2023-05-15T09:07:26.394Z,4.05
2023-05-15T09:09:54.613Z,4.53
2023-05-15T09:12:25.754Z,5.20
2023-05-15T09:15:08.658Z,4.53
2023-05-15T09:17:35.814Z,4.65
2023-05-15T09:20:06.257Z,4.90
2023-05-15T09:22:37.083Z,4.80
2023-05-15T09:25:05.727Z,5.40
2023-05-15T09:27:43.215Z,5.32
2023-05-15T09:30:11.299Z,5.13
2023-05-15T09:32:39.027Z,5.47
2023-05-15T09:35:53.010Z,5.30
2023-05-15T09:38:20.069Z,5.40
2023-05-15T09:40:47.229Z,4.45
2023-05-15T09:43:14.202Z,4.93
2023-05-15T09:45:41.427Z,4.95
2023-05-15T09:48:09.934Z,5.75
2023-05-15T09:50:39.419Z,5.43
2023-05-15T09:53:06.678Z,4.82
2023-05-15T09:55:37.052Z,5.13
2023-05-15T09:58:15.336Z,5.25
2023-05-15T10:00:47.675Z,5.10
2023-05-15T10:03:22.249Z,5.43
2023-05-15T10:05:49.601Z,5.03
2023-05-15T10:08:27.049Z,5.07
2023-05-15T10:10:54.678Z,5.28
2023-05-15T10:13:24.638Z,5.35
2023-05-15T10:15:52.706Z,8.07
2023-05-15T10:18:26.142Z,6.15
2023-05-15T10:20:55.405Z,5.35
2023-05-15T10:23:23.468Z,5.25
2023-05-15T10:26:02.406Z,4.57
2023-05-15T10:28:30.216Z,4.60
2023-05-15T10:31:01.313Z,4.95
2023-05-15T10:33:30.732Z,4.30
2023-05-15T10:35:59.560Z,4.10
2023-05-15T10:38:27.488Z,3.72
2023-05-15T10:41:12.923Z,4.03
2023-05-15T10:43:44.513Z,3.75
2023-05-15T10:46:12.240Z,3.60
2023-05-15T10:48:40.127Z,3.28
2023-05-15T10:51:43.726Z,3.72
2023-05-15T10:58:32.378Z,3.93
2023-05-15T11:01:18.450Z,3.70
2023-05-15T11:04:03.899Z,3.80
2023-05-15T11:08:04.252Z,3.70
2023-05-15T11:11:10.040Z,3.40
2023-05-15T11:14:11.570Z,3.30
2023-05-15T11:17:12.774Z,3.20
2023-05-15T11:19:51.775Z,2.75
2023-05-15T11:22:32.708Z,3.08
2023-05-15T11:25:06.107Z,4.07
2023-05-15T11:27:47.007Z,3.30
2023-05-15T11:30:23.666Z,2.80
2023-05-15T11:33:08.917Z,3.30
2023-05-15T11:35:48.353Z,2.78
2023-05-15T11:38:22.784Z,2.67
2023-05-15T11:40:56.987Z,2.03
2023-05-15T11:43:32.404Z,2.60
2023-05-15T11:46:11.135Z,2.40
2023-05-15T11:48:49.684Z,1.83
2023-05-15T11:51:25.836Z,2.03
2023-05-15T11:53:55.436Z,1.80
2023-05-15T11:56:28.441Z,2.00
2023-05-15T11:58:58.446Z,1.88
2023-05-15T12:01:25.807Z,2.45
2023-05-15T12:03:54.770Z,1.83
2023-05-15T12:06:22.859Z,1.70
2023-05-15T12:08:53.839Z,1.80
2023-05-15T12:11:25.078Z,1.70
2023-05-15T12:13:54.603Z,1.65
2023-05-15T12:16:28.418Z,1.52
2023-05-15T12:18:58.909Z,1.27
2023-05-15T12:21:28.999Z,1.40
2023-05-15T12:26:27.766Z,1.20
2023-05-15T12:28:56.054Z,1.38
2023-05-15T12:31:23.757Z,1.23
2023-05-15T12:33:51.266Z,1.90
2023-05-15T12:36:22.410Z,1.10
2023-05-15T12:38:49.594Z,1.30
2023-05-15T12:41:16.694Z,1.27
2023-05-15T12:43:43.687Z,1.33
2023-05-15T12:46:14.725Z,1.10
2023-05-15T12:48:42.003Z,1.55
2023-05-15T12:51:09.399Z,1.42
2023-05-15T12:53:39.857Z,1.33
2023-05-15T12:56:08.335Z,1.33
2023-05-15T12:58:35.823Z,1.73
2023-05-15T13:01:06.280Z,1.30
2023-05-15T13:03:34.270Z,1.27
2023-05-15T13:06:07.225Z,1.50
2023-05-15T13:08:42.819Z,1.42
2023-05-15T13:13:47.844Z,1.50
2023-05-15T13:16:27.059Z,2.00
2023-05-15T13:18:58.716Z,1.90
2023-05-15T13:21:26.097Z,1.65
2023-05-15T13:23:53.441Z,1.75
2023-05-15T13:26:20.832Z,1.50
2023-05-15T13:28:48.033Z,1.70
2023-05-15T13:31:15.166Z,1.70
2023-05-15T13:33:42.140Z,1.90
2023-05-15T13:36:09.379Z,2.00
2023-05-15T13:38:36.552Z,1.88
2023-05-15T13:41:04.838Z,1.60
2023-05-15T13:43:32.206Z,1.40
2023-05-15T13:45:59.158Z,1.15
2023-05-15T13:48:26.301Z,1.40
2023-05-15T13:50:53.675Z,1.33
2023-05-15T13:53:21.332Z,1.10
2023-05-15T13:55:48.515Z,0.93
2023-05-15T13:58:15.828Z,1.20
2023-05-15T14:00:44.578Z,1.00
2023-05-15T14:03:14.963Z,1.10
2023-05-15T14:05:42.458Z,1.38
2023-05-15T14:08:11.181Z,1.20
2023-05-15T14:10:38.312Z,1.63
2023-05-15T14:13:05.888Z,1.30
2023-05-15T14:15:34.235Z,1.73
2023-05-15T14:18:01.375Z,1.60
2023-05-15T14:20:30.069Z,1.60
2023-05-15T14:22:57.310Z,1.60
2023-05-15T14:25:24.685Z,1.50
2023-05-15T14:27:51.861Z,1.60
2023-05-15T14:30:21.590Z,1.95
2023-05-15T14:32:49.360Z,1.58
2023-05-15T14:35:16.868Z,1.70
2023-05-15T14:37:46.713Z,1.38
2023-05-15T14:40:14.121Z,1.77
2023-05-15T14:42:41.552Z,2.08
2023-05-15T14:45:11.680Z,1.52
2023-05-15T14:47:40.349Z,1.70
2023-05-15T14:50:10.982Z,1.75
2023-05-15T14:52:38.127Z,2.00
2023-05-15T14:55:09.843Z,1.70
2023-05-15T14:57:46.377Z,1.80
2023-05-15T15:00:16.546Z,1.92
2023-05-15T15:02:44.717Z,1.73
2023-05-15T15:05:12.232Z,1.90
2023-05-15T15:08:06.105Z,1.80
2023-05-15T15:10:39.812Z,1.60
2023-05-15T15:13:10.336Z,1.50
2023-05-15T15:15:38.184Z,1.63
2023-05-15T15:18:07.189Z,1.67
2023-05-15T15:20:38.530Z,1.85
2023-05-15T15:23:06.813Z,1.50
2023-05-15T15:25:34.877Z,1.50
2023-05-15T15:28:03.657Z,1.88
2023-05-15T15:30:32.311Z,1.60
2023-05-15T15:33:02.729Z,1.63
2023-05-15T15:35:30.997Z,1.58
2023-05-15T15:37:58.631Z,1.63
2023-05-15T15:40:27.754Z,1.48
2023-05-15T15:42:56.816Z,1.92
2023-05-15T15:45:24.230Z,1.80
2023-05-15T15:47:51.284Z,1.42
2023-05-15T15:50:18.227Z,1.73
2023-05-15T15:52:45.218Z,1.50
2023-05-15T15:55:14.040Z,1.60
2023-05-15T15:57:41.818Z,1.58
2023-05-15T16:00:10.529Z,1.80
2023-05-15T16:02:37.821Z,1.65
2023-05-15T16:05:05.560Z,1.60
2023-05-15T16:07:32.615Z,2.00
2023-05-15T16:10:11.519Z,1.73
2023-05-15T16:12:40.781Z,1.80
2023-05-15T16:15:21.731Z,2.28
2023-05-15T16:17:53.265Z,1.60
2023-05-15T16:20:21.154Z,8.68
2023-05-15T16:22:48.208Z,6.43
2023-05-15T16:25:15.391Z,4.50
2023-05-15T16:27:42.948Z,4.05
2023-05-15T16:30:11.917Z,2.78
2023-05-15T16:32:39.619Z,2.20
2023-05-15T16:35:07.669Z,2.10
2023-05-15T16:37:34.772Z,1.90
2023-05-15T16:40:03.348Z,1.90
2023-05-15T16:42:35.366Z,2.10
2023-05-15T16:45:02.439Z,2.10
2023-05-15T16:47:31.857Z,2.67
2023-05-15T16:49:59.182Z,1.88
2023-05-15T16:52:26.440Z,1.95
2023-05-15T16:54:53.624Z,2.00
2023-05-15T16:57:20.503Z,2.00
2023-05-15T16:59:47.936Z,1.70
2023-05-15T17:02:15.257Z,2.33
2023-05-15T17:04:42.325Z,1.75
2023-05-15T17:07:10.657Z,1.85
2023-05-15T17:18:54.036Z,2.22
2023-05-15T17:21:40.824Z,2.10
2023-05-15T17:24:55.075Z,2.13
2023-05-15T17:27:58.672Z,1.75
2023-05-15T17:30:58.998Z,2.13
2023-05-15T17:33:29.437Z,1.67
2023-05-15T17:35:56.664Z,1.75
2023-05-15T17:38:23.541Z,1.90
2023-05-15T17:40:50.489Z,2.05
2023-05-15T17:43:17.584Z,2.10
2023-05-15T17:45:45.487Z,1.90
2023-05-15T17:48:12.866Z,1.60
2023-05-15T17:50:39.848Z,1.98
2023-05-15T17:53:06.853Z,2.08
2023-05-15T17:55:43.660Z,5.03
2023-05-15T17:58:10.814Z,2.42
2023-05-15T18:00:38.124Z,1.90
2023-05-15T18:03:05.201Z,2.17
2023-05-15T18:05:34.809Z,1.70
2023-05-15T18:08:06.541Z,1.55
2023-05-15T18:10:40.040Z,2.38
2023-05-15T18:14:02.587Z,2.03
2023-05-15T18:16:58.984Z,1.80
2023-05-15T18:19:48.994Z,1.90
2023-05-15T18:23:02.679Z,2.40
2023-05-15T18:26:11.677Z,2.13
2023-05-15T18:31:58.858Z,2.42
2023-05-15T18:35:03.546Z,2.25
2023-05-15T18:37:50.990Z,2.17
2023-05-15T18:43:22.885Z,2.03
2023-05-15T18:46:34.232Z,2.55
2023-05-15T18:52:06.764Z,2.50
2023-05-15T18:54:44.857Z,3.00
2023-05-15T19:16:16.066Z,2.50
2023-05-15T19:19:25.556Z,2.70
2023-05-15T19:26:58.436Z,2.40
2023-05-15T19:32:57.474Z,3.08
2023-05-15T19:35:37.511Z,3.20
2023-05-15T19:38:11.570Z,2.78
2023-05-15T19:40:48.832Z,3.50
2023-05-15T19:43:16.243Z,3.10
2023-05-15T19:45:43.838Z,2.80
2023-05-15T19:48:11.136Z,2.60
2023-05-15T19:50:39.580Z,2.70
2023-05-15T19:53:06.846Z,2.90
2023-05-15T19:55:34.195Z,2.95
2023-05-15T19:58:01.382Z,3.50
2023-05-15T20:00:28.601Z,3.40
2023-05-15T20:02:56.117Z,3.30
2023-05-15T20:05:23.300Z,3.55
2023-05-15T20:07:50.284Z,3.08
2023-05-15T20:10:19.013Z,3.00
2023-05-15T20:12:47.154Z,3.22
2023-05-15T20:15:15.146Z,3.08
2023-05-15T20:17:42.942Z,3.83
2023-05-15T20:20:11.970Z,3.33
2023-05-15T20:22:43.730Z,3.92
2023-05-15T20:25:11.214Z,4.22
2023-05-15T20:27:38.503Z,4.03
2023-05-15T20:30:06.952Z,3.88
2023-05-15T20:32:34.137Z,3.58
2023-05-15T20:35:01.652Z,3.80
2023-05-15T20:37:30.484Z,3.80
2023-05-15T20:39:57.993Z,3.40
2023-05-15T20:42:29.299Z,3.20
2023-05-15T20:44:56.402Z,3.15
2023-05-15T20:47:23.356Z,3.42
2023-05-15T20:49:50.597Z,3.72
2023-05-15T20:52:17.534Z,3.40
2023-05-15T20:54:44.590Z,3.97
2023-05-15T20:57:11.713Z,4.28
2023-05-15T20:59:38.595Z,4.75
2023-05-15T21:02:05.968Z,3.88
2023-05-15T21:04:32.986Z,3.25
2023-05-15T21:06:59.995Z,3.58
2023-05-15T21:09:27.080Z,3.72
2023-05-15T21:11:54.075Z,3.90
2023-05-15T21:14:21.012Z,3.10
2023-05-15T21:16:48.301Z,3.30
2023-05-15T21:19:15.604Z,3.28
2023-05-15T21:21:42.722Z,3.00
2023-05-15T21:24:09.677Z,3.40
2023-05-15T21:26:36.527Z,3.22
2023-05-15T21:29:03.860Z,3.22
2023-05-15T21:31:31.280Z,3.50
2023-05-15T21:33:58.502Z,3.60
2023-05-15T21:36:25.618Z,4.50
2023-05-15T21:38:52.510Z,5.85
2023-05-15T21:41:19.564Z,5.43
2023-05-15T21:43:46.521Z,6.00
2023-05-15T21:46:13.906Z,6.72
2023-05-15T21:48:41.298Z,7.03
2023-05-15T21:51:08.481Z,6.70
2023-05-15T21:53:35.525Z,5.80
2023-05-15T21:56:03.972Z,5.45
2023-05-15T21:58:31.853Z,4.65
2023-05-15T22:00:59.183Z,3.88
2023-05-15T22:03:26.257Z,3.80
2023-05-15T22:05:53.865Z,3.75
2023-05-15T22:08:21.766Z,3.35
2023-05-15T22:10:49.543Z,4.20
2023-05-15T22:13:16.685Z,3.85
2023-05-15T22:15:43.887Z,3.65
2023-05-15T22:18:11.118Z,3.92
2023-05-15T22:20:39.027Z,4.10
2023-05-15T22:23:06.723Z,3.63
2023-05-15T22:25:33.873Z,3.88
2023-05-15T22:28:00.906Z,4.35
2023-05-15T22:30:28.363Z,3.90
2023-05-15T22:32:55.846Z,3.42
2023-05-15T22:35:22.917Z,3.80
2023-05-15T22:37:50.029Z,3.63
2023-05-15T22:40:17.495Z,3.80
2023-05-15T22:42:44.462Z,4.15
2023-05-15T22:45:12.074Z,3.92
2023-05-15T22:47:39.010Z,4.05
2023-05-15T22:50:07.828Z,3.38
2023-05-15T22:52:35.196Z,3.45
2023-05-15T22:55:02.149Z,4.30
2023-05-15T22:57:29.560Z,4.18
2023-05-15T22:59:56.896Z,3.85
2023-05-15T23:02:23.997Z,3.90
2023-05-15T23:04:51.045Z,3.95
2023-05-15T23:07:17.944Z,4.20
2023-05-15T23:09:44.988Z,3.92
2023-05-15T23:12:12.233Z,4.32
2023-05-15T23:14:40.194Z,4.03
2023-05-15T23:17:07.206Z,4.47
2023-05-15T23:19:34.371Z,4.57
2023-05-15T23:22:02.220Z,4.93
2023-05-15T23:24:29.750Z,4.10
2023-05-15T23:26:57.433Z,4.28
2023-05-15T23:29:24.300Z,4.55
2023-05-15T23:31:51.411Z,4.05
2023-05-15T23:34:18.653Z,4.70
2023-05-15T23:36:45.623Z,4.75
2023-05-15T23:39:12.694Z,4.68
2023-05-15T23:41:39.725Z,4.03
2023-05-15T23:44:06.789Z,5.00
2023-05-15T23:46:35.618Z,5.03
2023-05-15T23:49:02.883Z,4.85
2023-05-15T23:51:29.886Z,5.32
2023-05-15T23:53:56.861Z,5.38
2023-05-15T23:56:23.725Z,5.55
2023-05-15T23:58:50.749Z,4.95
